createdAt,value
2018-07-05T00:02:22.872Z,2.63
2018-07-05T00:05:09.270Z,2.40
2018-07-05T00:07:55.592Z,2.20
2018-07-05T00:10:42.000Z,2.50
2018-07-05T00:13:28.596Z,2.57
2018-07-05T00:16:15.080Z,2.50
2018-07-05T00:19:01.498Z,2.90
2018-07-05T00:21:48.054Z,2.50
2018-07-05T00:24:34.536Z,2.40
2018-07-05T00:27:20.911Z,2.87
2018-07-05T00:30:07.183Z,2.73
2018-07-05T00:32:53.904Z,3.20
2018-07-05T00:35:40.527Z,2.47
2018-07-05T00:38:26.967Z,2.53
2018-07-05T00:41:13.434Z,2.60
2018-07-05T00:44:00.052Z,2.73
2018-07-05T00:46:46.471Z,2.73
2018-07-05T00:49:32.824Z,2.70
2018-07-05T00:52:19.203Z,2.63
2018-07-05T00:55:05.819Z,2.53
2018-07-05T00:57:46.450Z,2.83
2018-07-05T01:00:33.098Z,2.80
2018-07-05T01:03:19.719Z,2.87
2018-07-05T01:06:06.243Z,2.30
2018-07-05T01:08:52.635Z,2.90
2018-07-05T01:11:39.216Z,3.07
2018-07-05T01:14:25.893Z,2.60
2018-07-05T01:17:12.305Z,2.87
2018-07-05T01:19:58.712Z,2.90
2018-07-05T01:22:44.976Z,2.77
2018-07-05T01:25:31.349Z,3.20
2018-07-05T01:28:17.999Z,3.23
2018-07-05T01:31:04.512Z,3.03
2018-07-05T01:33:50.932Z,2.73
2018-07-05T01:36:37.235Z,3.20
2018-07-05T01:39:23.542Z,3.03
2018-07-05T01:42:09.952Z,3.17
2018-07-05T01:44:56.354Z,3.17
2018-07-05T01:47:42.766Z,2.93
2018-07-05T01:50:29.079Z,3.00
2018-07-05T01:53:15.391Z,2.90
2018-07-05T01:56:01.847Z,3.20
2018-07-05T01:58:48.192Z,2.90
2018-07-05T02:01:34.663Z,3.03
2018-07-05T02:04:21.010Z,3.10
2018-07-05T02:07:07.580Z,2.73
2018-07-05T02:09:53.905Z,2.77
2018-07-05T02:12:40.427Z,3.43
2018-07-05T02:15:27.069Z,3.20
2018-07-05T02:18:13.454Z,3.17
2018-07-05T02:20:59.803Z,3.00
2018-07-05T02:23:46.100Z,3.37
2018-07-05T02:26:26.503Z,2.83
2018-07-05T02:29:12.907Z,3.00
2018-07-05T02:31:59.293Z,3.00
2018-07-05T02:34:45.616Z,3.20
2018-07-05T02:37:37.277Z,3.00
2018-07-05T02:40:23.734Z,3.27
2018-07-05T02:43:10.107Z,3.47
2018-07-05T02:45:56.711Z,3.20
2018-07-05T02:48:43.112Z,3.37
2018-07-05T02:51:29.708Z,3.37
2018-07-05T02:54:16.282Z,3.47
2018-07-05T02:57:02.599Z,3.30
2018-07-05T02:59:49.151Z,3.10
2018-07-05T03:02:35.461Z,3.23
2018-07-05T03:05:21.860Z,3.30
2018-07-05T03:08:08.288Z,3.30
2018-07-05T03:10:54.643Z,3.20
2018-07-05T03:13:41.068Z,3.20
2018-07-05T03:16:27.360Z,3.20
2018-07-05T03:19:13.771Z,3.30
2018-07-05T03:22:00.935Z,3.20
2018-07-05T03:24:47.258Z,3.13
2018-07-05T03:27:33.566Z,3.10
2018-07-05T03:30:20.037Z,3.50
2018-07-05T03:33:06.669Z,3.37
2018-07-05T03:35:53.027Z,3.40
2018-07-05T03:38:33.467Z,3.53
2018-07-05T03:41:19.931Z,3.43
2018-07-05T03:44:06.492Z,3.20
2018-07-05T03:46:52.899Z,3.10
2018-07-05T03:49:39.164Z,3.33
2018-07-05T03:52:25.740Z,3.10
2018-07-05T03:55:12.177Z,3.40
2018-07-05T03:57:58.470Z,3.43
2018-07-05T04:00:44.987Z,3.37
2018-07-05T04:03:31.306Z,3.40
2018-07-05T04:06:17.771Z,3.40
2018-07-05T04:09:04.563Z,3.50
2018-07-05T04:11:51.207Z,3.30
2018-07-05T04:14:37.916Z,3.40
2018-07-05T04:17:24.221Z,3.93
2018-07-05T04:20:10.827Z,3.60
2018-07-05T04:22:57.160Z,3.77
2018-07-05T04:25:43.566Z,3.80
2018-07-05T04:28:29.927Z,3.67
2018-07-05T04:31:16.243Z,3.40
2018-07-05T04:34:02.642Z,3.70
2018-07-05T04:36:49.148Z,3.87
2018-07-05T04:39:35.873Z,3.77
2018-07-05T04:42:22.291Z,3.47
2018-07-05T04:45:10.015Z,3.70
2018-07-05T04:47:59.393Z,3.40
2018-07-05T04:50:46.554Z,3.77
2018-07-05T04:53:33.104Z,4.07
2018-07-05T04:56:19.448Z,3.70
2018-07-05T04:59:07.769Z,3.70
2018-07-05T05:01:58.833Z,3.93
2018-07-05T05:04:45.704Z,3.70
2018-07-05T05:07:32.334Z,4.20
2018-07-05T05:10:21.900Z,4.00
2018-07-05T05:13:10.927Z,3.87
2018-07-05T05:15:58.032Z,4.17
2018-07-05T05:18:44.596Z,4.00
2018-07-05T05:21:30.965Z,3.83
2018-07-05T05:24:17.616Z,3.80
2018-07-05T05:27:04.067Z,4.23
2018-07-05T05:29:50.461Z,3.90
2018-07-05T05:32:36.787Z,3.90
2018-07-05T05:35:23.675Z,3.87
2018-07-05T05:38:10.220Z,4.30
2018-07-05T05:40:56.672Z,3.80
2018-07-05T05:43:37.198Z,3.80
2018-07-05T05:46:23.580Z,3.63
2018-07-05T05:49:09.955Z,4.13
2018-07-05T05:51:56.319Z,3.73
2018-07-05T05:54:42.624Z,3.60
2018-07-05T05:57:28.926Z,4.17
2018-07-05T06:00:15.439Z,3.67
2018-07-05T06:03:01.877Z,3.67
2018-07-05T06:05:48.164Z,3.67
2018-07-05T06:08:34.580Z,3.93
2018-07-05T06:11:21.070Z,3.83
2018-07-05T06:14:07.680Z,3.50
2018-07-05T06:16:54.181Z,3.50
2018-07-05T06:19:40.676Z,4.10
2018-07-05T06:22:27.084Z,4.13
2018-07-05T06:25:13.449Z,4.27
2018-07-05T06:27:59.834Z,4.30
2018-07-05T06:30:46.260Z,3.97
2018-07-05T06:33:32.704Z,3.40
2018-07-05T06:36:19.347Z,3.30
2018-07-05T06:39:06.996Z,3.70
2018-07-05T06:41:53.402Z,3.70
2018-07-05T06:44:39.817Z,3.70
2018-07-05T06:47:26.389Z,3.80
2018-07-05T06:50:12.690Z,3.30
2018-07-05T06:52:59.088Z,3.80
2018-07-05T06:55:45.463Z,3.63
2018-07-05T06:58:31.929Z,3.77
2018-07-05T07:01:18.551Z,3.63
2018-07-05T07:04:04.908Z,3.30
2018-07-05T07:06:51.309Z,4.07
2018-07-05T07:09:37.630Z,3.60
2018-07-05T07:12:24.179Z,3.87
2018-07-05T07:15:10.597Z,3.60
2018-07-05T07:17:56.979Z,3.63
2018-07-05T07:20:43.399Z,3.43
2018-07-05T07:23:29.906Z,4.10
2018-07-05T07:26:16.416Z,3.30
2018-07-05T07:29:02.763Z,3.33
2018-07-05T07:31:43.504Z,3.53
2018-07-05T07:34:29.811Z,3.40
2018-07-05T07:37:16.060Z,3.47
2018-07-05T07:40:02.405Z,3.63
2018-07-05T07:42:36.613Z,3.60
2018-07-05T07:45:04.504Z,3.40
2018-07-05T07:47:32.405Z,3.77
2018-07-05T07:50:00.811Z,3.10
2018-07-05T07:52:28.686Z,3.03
2018-07-05T07:54:56.624Z,3.10
2018-07-05T07:57:24.802Z,3.03
2018-07-05T07:59:52.716Z,3.10
2018-07-05T08:02:20.609Z,3.07
2018-07-05T08:04:48.513Z,2.93
2018-07-05T08:07:16.444Z,3.17
2018-07-05T08:09:44.369Z,3.20
2018-07-05T08:12:12.248Z,3.27
2018-07-05T08:14:40.251Z,3.03
2018-07-05T08:17:08.127Z,3.27
2018-07-05T08:19:36.187Z,3.00
2018-07-05T08:22:04.083Z,3.20
2018-07-05T08:24:32.108Z,3.23
2018-07-05T08:27:00.099Z,3.00
2018-07-05T08:29:27.991Z,3.07
2018-07-05T08:31:55.922Z,3.27
2018-07-05T08:34:24.176Z,3.10
2018-07-05T08:36:51.989Z,2.90
2018-07-05T08:39:20.268Z,3.00
2018-07-05T08:41:48.756Z,3.00
2018-07-05T08:44:16.680Z,2.60
2018-07-05T08:46:44.575Z,2.70
2018-07-05T08:49:12.497Z,2.90
2018-07-05T08:51:40.503Z,2.80
2018-07-05T08:54:08.567Z,2.80
2018-07-05T08:56:36.443Z,3.30
2018-07-05T08:59:04.343Z,3.23
2018-07-05T09:01:32.247Z,3.20
2018-07-05T09:04:00.380Z,2.93
2018-07-05T09:06:28.340Z,3.07
2018-07-05T09:08:56.246Z,2.67
2018-07-05T09:11:24.136Z,3.00
2018-07-05T09:13:52.028Z,2.80
2018-07-05T09:16:20.005Z,2.77
2018-07-05T09:21:46.239Z,2.90
2018-07-05T09:24:14.154Z,2.40
2018-07-05T09:26:42.336Z,2.80
2018-07-05T09:29:10.231Z,2.70
2018-07-05T09:31:38.124Z,2.43
2018-07-05T09:34:06.032Z,2.70
2018-07-05T09:36:33.924Z,2.97
2018-07-05T09:39:01.860Z,2.50
2018-07-05T09:41:29.751Z,2.63
2018-07-05T09:43:57.895Z,2.60
2018-07-05T09:46:25.699Z,2.53
2018-07-05T09:48:53.693Z,2.53
2018-07-05T09:51:21.600Z,2.30
2018-07-05T09:53:49.899Z,2.53
2018-07-05T09:56:17.828Z,2.70
2018-07-05T09:58:45.807Z,2.50
2018-07-05T10:01:13.825Z,2.60
2018-07-05T10:03:42.006Z,2.50
2018-07-05T10:06:10.046Z,2.87
2018-07-05T10:08:37.928Z,2.70
2018-07-05T10:11:05.847Z,2.23
2018-07-05T10:13:34.287Z,2.70
2018-07-05T10:16:02.332Z,2.77
2018-07-05T10:18:30.218Z,2.70
2018-07-05T10:20:58.224Z,2.50
2018-07-05T10:23:26.175Z,2.70
2018-07-05T10:25:54.172Z,2.60
2018-07-05T10:28:22.057Z,2.80
2018-07-05T10:31:02.200Z,2.70
2018-07-05T10:33:44.928Z,2.30
2018-07-05T10:36:12.858Z,2.60
2018-07-05T10:38:40.762Z,2.60
2018-07-05T10:41:20.991Z,2.60
2018-07-05T10:44:07.308Z,2.47
2018-07-05T10:46:53.735Z,2.83
2018-07-05T10:49:40.171Z,2.50
2018-07-05T10:52:26.584Z,2.53
2018-07-05T10:55:13.244Z,2.80
2018-07-05T10:57:59.545Z,2.70
2018-07-05T11:00:45.864Z,2.70
2018-07-05T11:03:32.198Z,2.37
2018-07-05T11:06:18.624Z,2.50
2018-07-05T11:08:59.139Z,2.60
2018-07-05T11:11:45.701Z,2.50
2018-07-05T11:14:33.656Z,2.40
2018-07-05T11:17:20.132Z,2.27
2018-07-05T11:20:06.491Z,2.47
2018-07-05T11:22:52.863Z,2.40
2018-07-05T11:25:39.351Z,2.40
2018-07-05T11:28:25.867Z,2.40
2018-07-05T11:31:12.223Z,2.40
2018-07-05T11:33:58.552Z,2.70
2018-07-05T11:36:45.073Z,2.40
2018-07-05T11:39:31.700Z,2.23
2018-07-05T11:42:18.068Z,2.33
2018-07-05T11:45:04.517Z,2.40
2018-07-05T11:47:51.061Z,2.90
2018-07-05T11:50:37.944Z,2.50
2018-07-05T11:53:24.451Z,2.63
2018-07-05T11:56:10.817Z,2.67
2018-07-05T11:58:57.434Z,3.07
2018-07-05T12:01:43.887Z,2.80
2018-07-05T12:04:30.429Z,3.80
2018-07-05T12:07:16.824Z,3.30
2018-07-05T12:10:03.240Z,3.40
2018-07-05T12:12:49.600Z,3.20
2018-07-05T12:15:35.944Z,2.93
2018-07-05T12:18:22.411Z,3.23
2018-07-05T12:21:08.807Z,3.13
2018-07-05T12:23:55.403Z,3.53
2018-07-05T12:26:41.660Z,3.00
2018-07-05T12:29:28.146Z,3.17
2018-07-05T12:32:14.547Z,3.17
2018-07-05T12:35:01.068Z,3.17
2018-07-05T12:37:47.332Z,3.07
2018-07-05T12:40:33.692Z,3.37
2018-07-05T12:43:20.088Z,2.97
2018-07-05T12:46:06.484Z,3.20
2018-07-05T12:48:53.009Z,3.33
2018-07-05T12:51:39.344Z,3.23
2018-07-05T12:54:25.707Z,2.87
2018-07-05T12:57:12.147Z,3.03
2018-07-05T12:59:58.808Z,3.00
2018-07-05T13:02:45.228Z,2.97
2018-07-05T13:05:31.691Z,3.20
2018-07-05T13:08:18.064Z,3.03
2018-07-05T13:10:58.834Z,3.17
2018-07-05T13:13:45.212Z,2.80
2018-07-05T13:16:31.613Z,2.83
2018-07-05T13:19:18.089Z,3.00
2018-07-05T13:22:04.527Z,2.73
2018-07-05T13:24:50.915Z,3.20
2018-07-05T13:27:37.315Z,2.83
2018-07-05T13:30:23.796Z,2.73
2018-07-05T13:33:10.356Z,2.60
2018-07-05T13:35:50.800Z,3.37
2018-07-05T13:38:37.343Z,2.27
2018-07-05T13:41:25.427Z,2.50
2018-07-05T13:44:12.011Z,2.53
2018-07-05T13:46:58.468Z,2.70
2018-07-05T13:49:44.964Z,2.63
2018-07-05T13:52:31.349Z,2.30
2018-07-05T13:55:17.828Z,2.47
2018-07-05T13:58:04.310Z,2.50
2018-07-05T14:00:50.701Z,2.43
2018-07-05T14:03:37.144Z,2.27
2018-07-05T14:06:23.728Z,2.47
2018-07-05T14:09:10.176Z,2.80
2018-07-05T14:11:57.128Z,2.43
2018-07-05T14:14:44.218Z,2.50
2018-07-05T14:17:30.657Z,2.37
2018-07-05T14:20:17.015Z,2.20
2018-07-05T14:23:03.691Z,2.50
2018-07-05T14:25:50.227Z,2.60
2018-07-05T14:28:36.580Z,2.60
2018-07-05T14:31:22.992Z,2.50
2018-07-05T14:34:09.314Z,2.70
2018-07-05T14:36:49.926Z,3.77
2018-07-05T14:39:36.274Z,4.23
2018-07-05T14:42:22.719Z,3.80
2018-07-05T14:45:03.116Z,3.50
2018-07-05T14:47:49.511Z,3.90
2018-07-05T14:50:35.947Z,3.00
2018-07-05T14:53:22.398Z,3.33
2018-07-05T14:56:08.976Z,3.70
2018-07-05T14:58:55.519Z,3.40
2018-07-05T15:01:41.875Z,3.23
2018-07-05T15:04:28.263Z,4.83
2018-07-05T15:07:14.867Z,4.37
2018-07-05T15:10:01.180Z,4.47
2018-07-05T15:12:47.571Z,4.20
2018-07-05T15:15:34.120Z,4.23
2018-07-05T15:18:20.545Z,4.47
2018-07-05T15:21:06.876Z,4.10
2018-07-05T15:23:53.529Z,3.40
2018-07-05T15:26:39.972Z,3.20
2018-07-05T15:29:26.532Z,2.53
2018-07-05T15:32:12.877Z,2.20
2018-07-05T15:34:59.159Z,2.50
2018-07-05T15:37:45.603Z,2.70
2018-07-05T15:40:31.891Z,2.50
2018-07-05T15:43:18.336Z,2.83
2018-07-05T15:46:04.631Z,2.93
2018-07-05T15:48:51.023Z,2.70
2018-07-05T15:51:37.344Z,2.50
2018-07-05T15:54:26.820Z,3.60
2018-07-05T15:57:14.275Z,3.53
2018-07-05T16:00:01.508Z,2.73
2018-07-05T16:02:51.311Z,3.07
2018-07-05T16:05:37.958Z,2.90
2018-07-05T16:08:25.950Z,3.10
2018-07-05T16:11:21.116Z,2.50
2018-07-05T16:14:10.045Z,3.03
2018-07-05T16:16:57.404Z,2.93
2018-07-05T16:19:44.019Z,3.10
2018-07-05T16:22:31.281Z,3.60
2018-07-05T16:25:20.949Z,2.77
2018-07-05T16:28:09.183Z,3.10
2018-07-05T16:30:57.555Z,2.87
2018-07-05T16:33:44.113Z,3.13
2018-07-05T16:36:30.642Z,2.67
2018-07-05T16:39:17.058Z,3.00
2018-07-05T16:42:03.480Z,3.83
2018-07-05T16:44:49.849Z,3.03
2018-07-05T16:47:36.414Z,2.83
2018-07-05T16:50:22.832Z,2.93
2018-07-05T16:53:09.200Z,2.70
2018-07-05T16:55:55.796Z,3.10
2018-07-05T16:58:42.218Z,3.00
2018-07-05T17:01:28.565Z,2.80
2018-07-05T17:04:15.591Z,3.27
2018-07-05T17:07:03.443Z,3.00
2018-07-05T17:09:49.808Z,3.57
2018-07-05T17:12:36.600Z,3.27
2018-07-05T17:15:22.933Z,3.40
2018-07-05T17:18:09.533Z,3.10
2018-07-05T17:20:55.899Z,3.20
2018-07-05T17:23:42.417Z,3.37
2018-07-05T17:26:29.024Z,3.10
2018-07-05T17:29:15.406Z,3.57
2018-07-05T17:32:01.704Z,2.83
2018-07-05T17:34:48.035Z,3.20
2018-07-05T17:37:34.564Z,2.87
2018-07-05T17:40:21.000Z,3.00
2018-07-05T17:43:07.420Z,2.67
2018-07-05T17:45:53.773Z,3.10
2018-07-05T17:48:40.367Z,2.97
2018-07-05T17:51:26.946Z,3.10
2018-07-05T17:54:13.452Z,2.80
2018-07-05T17:57:00.311Z,2.57
2018-07-05T17:59:46.663Z,2.67
2018-07-05T18:02:33.060Z,2.83
2018-07-05T18:05:19.631Z,3.10
2018-07-05T18:08:06.060Z,3.27
2018-07-05T18:10:52.472Z,3.00
2018-07-05T18:13:38.856Z,3.00
2018-07-05T18:16:25.274Z,2.73
2018-07-05T18:19:11.794Z,2.80
2018-07-05T18:21:58.169Z,2.90
2018-07-05T18:24:44.619Z,3.07
2018-07-05T18:27:31.087Z,4.07
2018-07-05T18:30:17.460Z,3.53
2018-07-05T18:33:04.343Z,3.97
2018-07-05T18:35:50.708Z,3.53
2018-07-05T18:38:37.108Z,3.97
2018-07-05T18:41:23.432Z,3.13
2018-07-05T18:44:09.775Z,4.13
2018-07-05T18:46:58.702Z,4.00
2018-07-05T18:49:45.735Z,3.80
2018-07-05T18:52:32.196Z,3.90
2018-07-05T18:55:18.571Z,3.57
2018-07-05T18:58:04.997Z,3.80
2018-07-05T19:00:51.507Z,4.20
2018-07-05T19:03:37.869Z,3.77
2018-07-05T19:06:24.633Z,3.90
2018-07-05T19:09:11.532Z,4.37
2018-07-05T19:11:57.934Z,4.33
2018-07-05T19:14:45.204Z,4.70
2018-07-05T19:17:31.718Z,4.10
2018-07-05T19:20:18.114Z,4.67
2018-07-05T19:23:04.506Z,4.47
2018-07-05T19:25:51.070Z,4.97
2018-07-05T19:28:37.496Z,4.77
2018-07-05T19:31:25.074Z,4.43
2018-07-05T19:34:11.635Z,4.57
2018-07-05T19:36:58.235Z,4.93
2018-07-05T19:39:44.711Z,4.67
2018-07-05T19:42:31.269Z,4.80
2018-07-05T19:45:17.624Z,4.17
2018-07-05T19:48:04.067Z,4.23
2018-07-05T19:50:50.503Z,3.90
2018-07-05T19:53:37.067Z,4.23
2018-07-05T19:56:23.502Z,4.00
2018-07-05T19:59:09.856Z,3.67
2018-07-05T20:01:59.237Z,3.67
2018-07-05T20:04:45.800Z,4.00
2018-07-05T20:07:32.347Z,4.00
2018-07-05T20:10:18.955Z,4.53
2018-07-05T20:13:05.520Z,3.70
2018-07-05T20:15:52.219Z,3.67
2018-07-05T20:18:38.773Z,3.65
2018-07-05T20:21:25.377Z,3.20
2018-07-05T20:24:11.912Z,3.62
2018-07-05T20:26:58.479Z,3.20
2018-07-05T20:29:44.947Z,3.45
2018-07-05T20:32:31.495Z,3.62
2018-07-05T20:35:17.879Z,3.50
2018-07-05T20:38:04.240Z,3.50
2018-07-05T20:40:50.702Z,3.22
2018-07-05T20:43:37.193Z,3.77
2018-07-05T20:46:23.584Z,3.52
2018-07-05T20:49:10.310Z,3.60
2018-07-05T20:51:57.538Z,3.52
2018-07-05T20:54:44.000Z,3.55
2018-07-05T20:57:30.615Z,3.30
2018-07-05T21:00:17.012Z,3.33
2018-07-05T21:03:03.375Z,3.42
2018-07-05T21:05:49.779Z,3.37
2018-07-05T21:08:36.262Z,3.42
2018-07-05T21:11:23.625Z,3.77
2018-07-05T21:14:10.184Z,3.22
2018-07-05T21:16:56.539Z,3.50
2018-07-05T21:19:42.926Z,3.30
2018-07-05T21:22:29.426Z,3.42
2018-07-05T21:25:15.940Z,3.20
2018-07-05T21:28:02.350Z,3.15
2018-07-05T21:30:48.772Z,3.30
2018-07-05T21:33:35.113Z,3.50
2018-07-05T21:36:21.544Z,3.47
2018-07-05T21:39:07.932Z,3.52
2018-07-05T21:41:54.387Z,3.95
2018-07-05T21:44:40.825Z,4.00
2018-07-05T21:47:27.240Z,4.10
2018-07-05T21:50:14.126Z,3.90
2018-07-05T21:53:00.698Z,4.20
2018-07-05T21:55:47.166Z,3.90
2018-07-05T21:58:33.866Z,3.93
2018-07-05T22:01:20.396Z,4.20
2018-07-05T22:04:07.064Z,3.83
2018-07-05T22:06:53.468Z,3.70
2018-07-05T22:09:39.863Z,3.80
2018-07-05T22:12:26.212Z,3.63
2018-07-05T22:15:12.631Z,3.90
2018-07-05T22:18:04.306Z,3.87
2018-07-05T22:20:56.163Z,4.13
2018-07-05T22:23:47.927Z,3.70
2018-07-05T22:26:39.758Z,3.83
2018-07-05T22:29:31.612Z,3.80
2018-07-05T22:32:18.123Z,3.87
2018-07-05T22:35:04.419Z,4.27
2018-07-05T22:37:50.735Z,3.63
2018-07-05T22:40:37.454Z,3.93
2018-07-05T22:43:23.856Z,3.87
2018-07-05T22:46:10.153Z,4.03
2018-07-05T22:48:56.526Z,3.90
2018-07-05T22:51:42.932Z,3.70
2018-07-05T22:54:29.456Z,3.43
2018-07-05T22:57:15.868Z,3.73
2018-07-05T23:00:02.288Z,4.00
2018-07-05T23:02:48.675Z,4.00
2018-07-05T23:05:35.197Z,4.00
2018-07-05T23:08:21.749Z,3.90
2018-07-05T23:11:08.201Z,3.77
2018-07-05T23:13:54.603Z,3.70
2018-07-05T23:16:40.944Z,3.80
2018-07-05T23:19:27.541Z,3.60
2018-07-05T23:22:13.921Z,3.93
2018-07-05T23:25:00.430Z,3.90
2018-07-05T23:27:47.464Z,3.70
2018-07-05T23:30:34.064Z,3.57
2018-07-05T23:33:20.698Z,3.60
2018-07-05T23:36:07.111Z,4.03
2018-07-05T23:38:53.565Z,3.93
2018-07-05T23:41:40.126Z,3.97
2018-07-05T23:44:26.556Z,4.23
2018-07-05T23:47:12.976Z,3.77
2018-07-05T23:49:59.272Z,3.93
2018-07-05T23:52:45.708Z,3.93
2018-07-05T23:55:32.136Z,3.67
2018-07-05T23:58:18.667Z,3.83
